sensor_id;sensor_type;location;lat;lon;timestamp;temperature;humidity
4406;DHT22;2216;53.806;11.598;2023-04-16T00:01:08;8.20;75.70
4406;DHT22;2216;53.806;11.598;2023-04-16T00:03:34;8.20;75.60
4406;DHT22;2216;53.806;11.598;2023-04-16T00:05:59;8.10;75.60
4406;DHT22;2216;53.806;11.598;2023-04-16T00:08:25;8.10;75.40
4406;DHT22;2216;53.806;11.598;2023-04-16T00:10:52;8.20;75.70
4406;DHT22;2216;53.806;11.598;2023-04-16T00:13:18;8.10;75.40
4406;DHT22;2216;53.806;11.598;2023-04-16T00:15:44;8.20;75.50
4406;DHT22;2216;53.806;11.598;2023-04-16T00:18:10;8.10;75.60
4406;DHT22;2216;53.806;11.598;2023-04-16T00:20:35;8.10;75.80
4406;DHT22;2216;53.806;11.598;2023-04-16T00:23:01;8.10;76.20
4406;DHT22;2216;53.806;11.598;2023-04-16T00:25:27;8.10;75.60
4406;DHT22;2216;53.806;11.598;2023-04-16T00:27:52;8.10;75.50
4406;DHT22;2216;53.806;11.598;2023-04-16T00:30:18;8.10;75.60
4406;DHT22;2216;53.806;11.598;2023-04-16T00:32:44;8.10;75.50
4406;DHT22;2216;53.806;11.598;2023-04-16T00:35:10;8.10;75.50
4406;DHT22;2216;53.806;11.598;2023-04-16T00:37:35;8.20;75.50
4406;DHT22;2216;53.806;11.598;2023-04-16T00:40:01;8.20;75.40
4406;DHT22;2216;53.806;11.598;2023-04-16T00:42:27;8.10;75.20
4406;DHT22;2216;53.806;11.598;2023-04-16T00:44:52;8.20;75.50
4406;DHT22;2216;53.806;11.598;2023-04-16T00:47:19;8.20;76.20
4406;DHT22;2216;53.806;11.598;2023-04-16T00:49:45;8.20;75.40
4406;DHT22;2216;53.806;11.598;2023-04-16T00:52:11;8.20;75.30
4406;DHT22;2216;53.806;11.598;2023-04-16T00:54:37;8.20;76.00
4406;DHT22;2216;53.806;11.598;2023-04-16T00:57:03;8.20;75.40
4406;DHT22;2216;53.806;11.598;2023-04-16T00:59:28;8.20;75.40
4406;DHT22;2216;53.806;11.598;2023-04-16T01:01:54;8.20;75.40
4406;DHT22;2216;53.806;11.598;2023-04-16T01:04:20;8.20;75.50
4406;DHT22;2216;53.806;11.598;2023-04-16T01:06:45;8.20;75.20
4406;DHT22;2216;53.806;11.598;2023-04-16T01:09:11;8.20;75.20
4406;DHT22;2216;53.806;11.598;2023-04-16T01:11:37;8.20;75.50
4406;DHT22;2216;53.806;11.598;2023-04-16T01:14:04;8.20;75.20
4406;DHT22;2216;53.806;11.598;2023-04-16T01:16:30;8.20;75.20
4406;DHT22;2216;53.806;11.598;2023-04-16T01:18:56;8.10;75.20
4406;DHT22;2216;53.806;11.598;2023-04-16T01:21:22;8.20;75.20
4406;DHT22;2216;53.806;11.598;2023-04-16T01:23:47;8.20;75.30
4406;DHT22;2216;53.806;11.598;2023-04-16T01:26:13;8.20;75.20
4406;DHT22;2216;53.806;11.598;2023-04-16T01:28:39;8.20;75.10
4406;DHT22;2216;53.806;11.598;2023-04-16T01:31:05;8.20;75.10
4406;DHT22;2216;53.806;11.598;2023-04-16T01:33:30;8.20;75.20
4406;DHT22;2216;53.806;11.598;2023-04-16T01:35:56;8.10;75.00
4406;DHT22;2216;53.806;11.598;2023-04-16T01:38:22;8.20;75.50
4406;DHT22;2216;53.806;11.598;2023-04-16T01:40:47;8.20;75.20
4406;DHT22;2216;53.806;11.598;2023-04-16T01:43:13;8.10;75.20
4406;DHT22;2216;53.806;11.598;2023-04-16T01:45:38;8.10;75.30
4406;DHT22;2216;53.806;11.598;2023-04-16T01:48:04;8.10;75.10
4406;DHT22;2216;53.806;11.598;2023-04-16T01:50:30;8.10;75.20
4406;DHT22;2216;53.806;11.598;2023-04-16T01:52:56;8.10;75.30
4406;DHT22;2216;53.806;11.598;2023-04-16T01:55:22;8.10;75.00
4406;DHT22;2216;53.806;11.598;2023-04-16T01:57:47;8.10;75.00
4406;DHT22;2216;53.806;11.598;2023-04-16T02:00:13;8.10;75.40
4406;DHT22;2216;53.806;11.598;2023-04-16T02:02:39;8.10;75.10
4406;DHT22;2216;53.806;11.598;2023-04-16T02:05:05;8.10;75.30
4406;DHT22;2216;53.806;11.598;2023-04-16T02:07:30;8.10;75.10
4406;DHT22;2216;53.806;11.598;2023-04-16T02:09:56;8.10;75.00
4406;DHT22;2216;53.806;11.598;2023-04-16T02:12:22;8.10;75.00
4406;DHT22;2216;53.806;11.598;2023-04-16T02:14:48;8.10;75.10
4406;DHT22;2216;53.806;11.598;2023-04-16T02:17:14;8.10;75.10
4406;DHT22;2216;53.806;11.598;2023-04-16T02:19:40;8.00;75.10
4406;DHT22;2216;53.806;11.598;2023-04-16T02:22:05;8.00;76.00
4406;DHT22;2216;53.806;11.598;2023-04-16T02:24:31;8.00;75.30
4406;DHT22;2216;53.806;11.598;2023-04-16T02:26:57;8.00;75.20
4406;DHT22;2216;53.806;11.598;2023-04-16T02:29:23;8.00;75.80
4406;DHT22;2216;53.806;11.598;2023-04-16T02:31:49;8.00;75.30
4406;DHT22;2216;53.806;11.598;2023-04-16T02:34:14;7.90;75.40
4406;DHT22;2216;53.806;11.598;2023-04-16T02:36:40;7.90;75.50
4406;DHT22;2216;53.806;11.598;2023-04-16T02:39:06;8.00;75.30
4406;DHT22;2216;53.806;11.598;2023-04-16T02:41:32;7.90;75.30
4406;DHT22;2216;53.806;11.598;2023-04-16T02:43:58;7.90;75.30
4406;DHT22;2216;53.806;11.598;2023-04-16T02:46:23;7.90;75.60
4406;DHT22;2216;53.806;11.598;2023-04-16T02:48:49;7.90;75.30
4406;DHT22;2216;53.806;11.598;2023-04-16T02:51:14;7.90;75.30
4406;DHT22;2216;53.806;11.598;2023-04-16T02:53:40;7.90;75.50
4406;DHT22;2216;53.806;11.598;2023-04-16T02:56:10;7.90;76.20
4406;DHT22;2216;53.806;11.598;2023-04-16T02:58:36;7.90;76.20
4406;DHT22;2216;53.806;11.598;2023-04-16T03:01:02;7.80;75.40
4406;DHT22;2216;53.806;11.598;2023-04-16T03:03:27;7.90;75.50
4406;DHT22;2216;53.806;11.598;2023-04-16T03:05:53;7.90;75.30
4406;DHT22;2216;53.806;11.598;2023-04-16T03:08:18;7.80;75.50
4406;DHT22;2216;53.806;11.598;2023-04-16T03:10:44;7.90;75.40
4406;DHT22;2216;53.806;11.598;2023-04-16T03:13:10;7.80;75.30
4406;DHT22;2216;53.806;11.598;2023-04-16T03:15:35;7.80;75.70
4406;DHT22;2216;53.806;11.598;2023-04-16T03:18:01;7.80;75.20
4406;DHT22;2216;53.806;11.598;2023-04-16T03:20:27;7.80;75.40
4406;DHT22;2216;53.806;11.598;2023-04-16T03:22:53;7.80;75.50
4406;DHT22;2216;53.806;11.598;2023-04-16T03:25:18;7.80;75.70
4406;DHT22;2216;53.806;11.598;2023-04-16T03:27:44;7.80;75.60
4406;DHT22;2216;53.806;11.598;2023-04-16T03:30:11;7.80;75.60
4406;DHT22;2216;53.806;11.598;2023-04-16T03:32:37;7.80;75.60
4406;DHT22;2216;53.806;11.598;2023-04-16T03:35:04;7.80;75.80
4406;DHT22;2216;53.806;11.598;2023-04-16T03:37:30;7.80;75.50
4406;DHT22;2216;53.806;11.598;2023-04-16T03:39:56;7.80;75.80
4406;DHT22;2216;53.806;11.598;2023-04-16T03:42:22;7.80;75.70
4406;DHT22;2216;53.806;11.598;2023-04-16T03:44:48;7.80;75.60
4406;DHT22;2216;53.806;11.598;2023-04-16T03:47:13;7.80;75.80
4406;DHT22;2216;53.806;11.598;2023-04-16T03:49:39;7.80;75.60
4406;DHT22;2216;53.806;11.598;2023-04-16T03:52:05;7.80;75.70
4406;DHT22;2216;53.806;11.598;2023-04-16T03:54:30;7.70;75.60
4406;DHT22;2216;53.806;11.598;2023-04-16T03:56:56;7.80;75.70
4406;DHT22;2216;53.806;11.598;2023-04-16T03:59:21;7.70;75.80
4406;DHT22;2216;53.806;11.598;2023-04-16T04:01:47;7.80;75.60
4406;DHT22;2216;53.806;11.598;2023-04-16T04:04:13;7.80;75.40
4406;DHT22;2216;53.806;11.598;2023-04-16T04:06:39;7.80;75.80
4406;DHT22;2216;53.806;11.598;2023-04-16T04:09:05;7.80;75.80
4406;DHT22;2216;53.806;11.598;2023-04-16T04:11:31;7.70;75.40
4406;DHT22;2216;53.806;11.598;2023-04-16T04:13:57;7.70;75.60
4406;DHT22;2216;53.806;11.598;2023-04-16T04:16:22;7.80;75.40
4406;DHT22;2216;53.806;11.598;2023-04-16T04:18:48;7.80;75.50
4406;DHT22;2216;53.806;11.598;2023-04-16T04:21:14;7.80;75.40
4406;DHT22;2216;53.806;11.598;2023-04-16T04:23:40;7.80;75.70
4406;DHT22;2216;53.806;11.598;2023-04-16T04:26:07;7.80;75.40
4406;DHT22;2216;53.806;11.598;2023-04-16T04:28:33;7.80;75.60
4406;DHT22;2216;53.806;11.598;2023-04-16T04:31:00;7.70;75.30
4406;DHT22;2216;53.806;11.598;2023-04-16T04:33:26;7.80;75.50
4406;DHT22;2216;53.806;11.598;2023-04-16T04:35:52;7.80;75.70
4406;DHT22;2216;53.806;11.598;2023-04-16T04:38:19;7.70;75.40
4406;DHT22;2216;53.806;11.598;2023-04-16T04:40:47;7.80;75.50
4406;DHT22;2216;53.806;11.598;2023-04-16T04:43:13;7.80;75.40
4406;DHT22;2216;53.806;11.598;2023-04-16T04:45:39;7.80;76.50
4406;DHT22;2216;53.806;11.598;2023-04-16T04:48:05;7.80;75.90
4406;DHT22;2216;53.806;11.598;2023-04-16T04:50:31;7.80;75.70
4406;DHT22;2216;53.806;11.598;2023-04-16T04:52:56;7.80;75.50
4406;DHT22;2216;53.806;11.598;2023-04-16T04:55:22;7.80;75.50
4406;DHT22;2216;53.806;11.598;2023-04-16T04:57:48;7.80;75.70
4406;DHT22;2216;53.806;11.598;2023-04-16T05:00:14;7.80;75.60
4406;DHT22;2216;53.806;11.598;2023-04-16T05:02:40;7.80;75.80
4406;DHT22;2216;53.806;11.598;2023-04-16T05:05:06;7.80;75.50
4406;DHT22;2216;53.806;11.598;2023-04-16T05:07:32;7.80;75.60
4406;DHT22;2216;53.806;11.598;2023-04-16T05:09:58;7.80;75.70
4406;DHT22;2216;53.806;11.598;2023-04-16T05:12:23;7.80;75.70
4406;DHT22;2216;53.806;11.598;2023-04-16T05:14:49;7.80;75.60
4406;DHT22;2216;53.806;11.598;2023-04-16T05:17:15;7.80;75.40
4406;DHT22;2216;53.806;11.598;2023-04-16T05:19:40;7.90;75.70
4406;DHT22;2216;53.806;11.598;2023-04-16T05:22:06;7.90;75.60
4406;DHT22;2216;53.806;11.598;2023-04-16T05:24:32;7.90;75.60
4406;DHT22;2216;53.806;11.598;2023-04-16T05:26:57;7.90;75.70
4406;DHT22;2216;53.806;11.598;2023-04-16T05:29:23;7.90;75.80
4406;DHT22;2216;53.806;11.598;2023-04-16T05:31:49;7.90;76.10
4406;DHT22;2216;53.806;11.598;2023-04-16T05:34:14;7.90;76.00
4406;DHT22;2216;53.806;11.598;2023-04-16T05:36:40;8.00;76.00
4406;DHT22;2216;53.806;11.598;2023-04-16T05:39:06;8.00;76.70
4406;DHT22;2216;53.806;11.598;2023-04-16T05:41:35;8.00;76.00
4406;DHT22;2216;53.806;11.598;2023-04-16T05:44:01;8.10;76.00
4406;DHT22;2216;53.806;11.598;2023-04-16T05:46:26;8.10;76.40
4406;DHT22;2216;53.806;11.598;2023-04-16T05:48:52;8.20;76.10
4406;DHT22;2216;53.806;11.598;2023-04-16T05:51:17;8.20;76.20
4406;DHT22;2216;53.806;11.598;2023-04-16T05:53:43;8.30;76.60
4406;DHT22;2216;53.806;11.598;2023-04-16T05:56:09;8.30;76.50
4406;DHT22;2216;53.806;11.598;2023-04-16T05:58:35;8.30;76.40
4406;DHT22;2216;53.806;11.598;2023-04-16T06:01:00;8.40;76.50
4406;DHT22;2216;53.806;11.598;2023-04-16T06:03:26;8.40;76.30
4406;DHT22;2216;53.806;11.598;2023-04-16T06:05:52;8.40;76.20
4406;DHT22;2216;53.806;11.598;2023-04-16T06:08:18;8.40;76.00
4406;DHT22;2216;53.806;11.598;2023-04-16T06:10:47;8.50;76.10
4406;DHT22;2216;53.806;11.598;2023-04-16T06:13:15;8.50;76.70
4406;DHT22;2216;53.806;11.598;2023-04-16T06:15:41;8.60;76.20
4406;DHT22;2216;53.806;11.598;2023-04-16T06:18:07;8.60;76.20
4406;DHT22;2216;53.806;11.598;2023-04-16T06:20:32;8.70;76.20
4406;DHT22;2216;53.806;11.598;2023-04-16T06:22:58;8.70;76.30
4406;DHT22;2216;53.806;11.598;2023-04-16T06:25:24;8.80;76.30
4406;DHT22;2216;53.806;11.598;2023-04-16T06:27:49;8.80;76.30
4406;DHT22;2216;53.806;11.598;2023-04-16T06:30:15;8.80;76.30
4406;DHT22;2216;53.806;11.598;2023-04-16T06:32:42;8.90;76.50
4406;DHT22;2216;53.806;11.598;2023-04-16T06:35:08;8.90;76.40
4406;DHT22;2216;53.806;11.598;2023-04-16T06:37:34;9.00;77.20
4406;DHT22;2216;53.806;11.598;2023-04-16T06:40:00;9.00;76.50
4406;DHT22;2216;53.806;11.598;2023-04-16T06:42:26;9.10;76.30
4406;DHT22;2216;53.806;11.598;2023-04-16T06:44:51;9.10;76.40
4406;DHT22;2216;53.806;11.598;2023-04-16T06:47:17;9.10;76.10
4406;DHT22;2216;53.806;11.598;2023-04-16T06:49:43;9.20;76.10
4406;DHT22;2216;53.806;11.598;2023-04-16T06:52:08;9.20;75.90
4406;DHT22;2216;53.806;11.598;2023-04-16T06:54:34;9.20;76.10
4406;DHT22;2216;53.806;11.598;2023-04-16T06:57:00;9.20;76.00
4406;DHT22;2216;53.806;11.598;2023-04-16T06:59:26;9.20;75.90
4406;DHT22;2216;53.806;11.598;2023-04-16T07:01:51;9.20;76.00
4406;DHT22;2216;53.806;11.598;2023-04-16T07:04:17;9.30;76.20
4406;DHT22;2216;53.806;11.598;2023-04-16T07:06:43;9.30;76.50
4406;DHT22;2216;53.806;11.598;2023-04-16T07:09:08;9.40;76.80
4406;DHT22;2216;53.806;11.598;2023-04-16T07:11:34;9.40;76.30
4406;DHT22;2216;53.806;11.598;2023-04-16T07:14:00;9.50;76.50
4406;DHT22;2216;53.806;11.598;2023-04-16T07:16:26;9.60;76.40
4406;DHT22;2216;53.806;11.598;2023-04-16T07:18:51;9.60;76.50
4406;DHT22;2216;53.806;11.598;2023-04-16T07:21:17;9.60;76.20
4406;DHT22;2216;53.806;11.598;2023-04-16T07:23:43;9.70;76.10
4406;DHT22;2216;53.806;11.598;2023-04-16T07:26:08;9.70;76.00
4406;DHT22;2216;53.806;11.598;2023-04-16T07:28:35;9.80;76.10
4406;DHT22;2216;53.806;11.598;2023-04-16T07:31:01;9.80;76.20
4406;DHT22;2216;53.806;11.598;2023-04-16T07:33:27;9.80;76.10
4406;DHT22;2216;53.806;11.598;2023-04-16T07:35:53;9.90;76.30
4406;DHT22;2216;53.806;11.598;2023-04-16T07:38:18;10.00;76.30
4406;DHT22;2216;53.806;11.598;2023-04-16T07:40:44;10.00;76.10
4406;DHT22;2216;53.806;11.598;2023-04-16T07:43:10;10.00;76.00
4406;DHT22;2216;53.806;11.598;2023-04-16T07:45:36;10.00;75.90
4406;DHT22;2216;53.806;11.598;2023-04-16T07:48:01;10.10;76.20
4406;DHT22;2216;53.806;11.598;2023-04-16T07:50:27;10.10;76.00
4406;DHT22;2216;53.806;11.598;2023-04-16T07:52:53;10.20;76.10
4406;DHT22;2216;53.806;11.598;2023-04-16T07:55:18;10.20;76.30
4406;DHT22;2216;53.806;11.598;2023-04-16T07:57:44;10.20;75.90
4406;DHT22;2216;53.806;11.598;2023-04-16T08:00:10;10.20;75.70
4406;DHT22;2216;53.806;11.598;2023-04-16T08:02:36;10.20;75.80
4406;DHT22;2216;53.806;11.598;2023-04-16T08:05:02;10.20;75.80
4406;DHT22;2216;53.806;11.598;2023-04-16T08:07:28;10.30;75.80
4406;DHT22;2216;53.806;11.598;2023-04-16T08:09:55;10.30;75.90
4406;DHT22;2216;53.806;11.598;2023-04-16T08:12:20;10.30;75.80
4406;DHT22;2216;53.806;11.598;2023-04-16T08:14:46;10.30;75.80
4406;DHT22;2216;53.806;11.598;2023-04-16T08:17:14;10.30;75.90
4406;DHT22;2216;53.806;11.598;2023-04-16T08:19:40;10.30;76.10
4406;DHT22;2216;53.806;11.598;2023-04-16T08:22:06;10.40;76.10
4406;DHT22;2216;53.806;11.598;2023-04-16T08:24:32;10.40;76.00
4406;DHT22;2216;53.806;11.598;2023-04-16T08:26:58;10.40;75.90
4406;DHT22;2216;53.806;11.598;2023-04-16T08:29:24;10.40;76.00
4406;DHT22;2216;53.806;11.598;2023-04-16T08:31:53;10.40;76.00
4406;DHT22;2216;53.806;11.598;2023-04-16T08:34:19;10.40;75.90
4406;DHT22;2216;53.806;11.598;2023-04-16T08:36:45;10.40;76.00
4406;DHT22;2216;53.806;11.598;2023-04-16T08:39:11;10.40;75.70
4406;DHT22;2216;53.806;11.598;2023-04-16T08:41:40;10.40;75.70
4406;DHT22;2216;53.806;11.598;2023-04-16T08:44:08;10.40;75.90
4406;DHT22;2216;53.806;11.598;2023-04-16T08:46:37;10.40;75.90
4406;DHT22;2216;53.806;11.598;2023-04-16T08:49:06;10.40;75.90
4406;DHT22;2216;53.806;11.598;2023-04-16T08:51:34;10.30;75.80
4406;DHT22;2216;53.806;11.598;2023-04-16T08:54:04;10.40;76.00
4406;DHT22;2216;53.806;11.598;2023-04-16T08:56:35;10.40;76.00
4406;DHT22;2216;53.806;11.598;2023-04-16T08:59:02;10.40;76.00
4406;DHT22;2216;53.806;11.598;2023-04-16T09:01:31;10.50;76.30
4406;DHT22;2216;53.806;11.598;2023-04-16T09:03:58;10.50;76.30
4406;DHT22;2216;53.806;11.598;2023-04-16T09:06:26;10.60;76.50
4406;DHT22;2216;53.806;11.598;2023-04-16T09:08:53;10.70;76.50
4406;DHT22;2216;53.806;11.598;2023-04-16T09:11:19;10.80;76.60
4406;DHT22;2216;53.806;11.598;2023-04-16T09:13:46;10.90;76.60
4406;DHT22;2216;53.806;11.598;2023-04-16T09:16:13;10.90;76.40
4406;DHT22;2216;53.806;11.598;2023-04-16T09:18:39;11.00;76.40
4406;DHT22;2216;53.806;11.598;2023-04-16T09:21:08;11.10;76.30
4406;DHT22;2216;53.806;11.598;2023-04-16T09:23:36;11.10;76.10
4406;DHT22;2216;53.806;11.598;2023-04-16T09:26:03;11.20;76.00
4406;DHT22;2216;53.806;11.598;2023-04-16T09:28:40;11.20;75.90
4406;DHT22;2216;53.806;11.598;2023-04-16T09:31:14;11.20;75.90
4406;DHT22;2216;53.806;11.598;2023-04-16T09:33:41;11.30;75.80
4406;DHT22;2216;53.806;11.598;2023-04-16T09:36:08;11.30;75.90
4406;DHT22;2216;53.806;11.598;2023-04-16T09:38:46;11.40;76.00
4406;DHT22;2216;53.806;11.598;2023-04-16T09:41:13;11.40;76.00
4406;DHT22;2216;53.806;11.598;2023-04-16T09:44:00;11.50;76.20
4406;DHT22;2216;53.806;11.598;2023-04-16T09:46:30;11.60;76.30
4406;DHT22;2216;53.806;11.598;2023-04-16T09:48:57;11.60;76.10
4406;DHT22;2216;53.806;11.598;2023-04-16T09:51:23;11.70;76.00
4406;DHT22;2216;53.806;11.598;2023-04-16T09:53:51;11.80;76.20
4406;DHT22;2216;53.806;11.598;2023-04-16T09:56:23;11.90;76.30
4406;DHT22;2216;53.806;11.598;2023-04-16T09:58:52;12.00;76.40
4406;DHT22;2216;53.806;11.598;2023-04-16T10:01:21;12.10;76.70
4406;DHT22;2216;53.806;11.598;2023-04-16T10:03:48;12.30;76.90
4406;DHT22;2216;53.806;11.598;2023-04-16T10:06:16;12.50;76.90
4406;DHT22;2216;53.806;11.598;2023-04-16T10:08:52;12.70;77.60
4406;DHT22;2216;53.806;11.598;2023-04-16T10:11:22;12.90;77.40
4406;DHT22;2216;53.806;11.598;2023-04-16T10:13:49;13.10;77.10
4406;DHT22;2216;53.806;11.598;2023-04-16T10:16:15;13.30;76.70
4406;DHT22;2216;53.806;11.598;2023-04-16T10:18:43;13.40;76.50
4406;DHT22;2216;53.806;11.598;2023-04-16T10:21:09;13.50;76.00
4406;DHT22;2216;53.806;11.598;2023-04-16T10:23:38;13.60;75.60
4406;DHT22;2216;53.806;11.598;2023-04-16T10:26:04;13.70;74.50
4406;DHT22;2216;53.806;11.598;2023-04-16T10:28:31;13.70;74.70
4406;DHT22;2216;53.806;11.598;2023-04-16T10:31:01;13.70;75.00
4406;DHT22;2216;53.806;11.598;2023-04-16T10:33:30;13.70;74.00
4406;DHT22;2216;53.806;11.598;2023-04-16T10:36:14;13.70;74.20
4406;DHT22;2216;53.806;11.598;2023-04-16T10:38:45;13.80;73.70
4406;DHT22;2216;53.806;11.598;2023-04-16T10:41:12;13.70;74.20
4406;DHT22;2216;53.806;11.598;2023-04-16T10:43:40;13.80;74.60
4406;DHT22;2216;53.806;11.598;2023-04-16T10:46:33;13.80;74.60
4406;DHT22;2216;53.806;11.598;2023-04-16T10:49:02;13.90;73.90
4406;DHT22;2216;53.806;11.598;2023-04-16T10:51:41;13.90;73.30
4406;DHT22;2216;53.806;11.598;2023-04-16T10:56:39;13.80;73.90
4406;DHT22;2216;53.806;11.598;2023-04-16T10:59:05;13.80;73.40
4406;DHT22;2216;53.806;11.598;2023-04-16T11:01:35;13.80;73.20
4406;DHT22;2216;53.806;11.598;2023-04-16T11:04:26;13.80;73.40
4406;DHT22;2216;53.806;11.598;2023-04-16T11:09:51;13.80;73.70
4406;DHT22;2216;53.806;11.598;2023-04-16T11:12:22;13.80;73.10
4406;DHT22;2216;53.806;11.598;2023-04-16T11:14:53;13.80;73.20
4406;DHT22;2216;53.806;11.598;2023-04-16T11:17:21;13.80;73.20
4406;DHT22;2216;53.806;11.598;2023-04-16T11:19:47;13.70;72.90
4406;DHT22;2216;53.806;11.598;2023-04-16T11:22:14;13.70;72.90
4406;DHT22;2216;53.806;11.598;2023-04-16T11:24:42;13.70;72.40
4406;DHT22;2216;53.806;11.598;2023-04-16T11:27:11;13.60;71.80
4406;DHT22;2216;53.806;11.598;2023-04-16T11:29:40;13.50;72.00
4406;DHT22;2216;53.806;11.598;2023-04-16T11:32:06;13.50;72.60
4406;DHT22;2216;53.806;11.598;2023-04-16T11:34:32;13.40;72.60
4406;DHT22;2216;53.806;11.598;2023-04-16T11:36:58;13.40;72.40
4406;DHT22;2216;53.806;11.598;2023-04-16T11:39:24;13.40;72.70
4406;DHT22;2216;53.806;11.598;2023-04-16T11:41:50;13.40;72.80
4406;DHT22;2216;53.806;11.598;2023-04-16T11:46:47;13.50;72.40
4406;DHT22;2216;53.806;11.598;2023-04-16T11:49:13;13.40;72.00
4406;DHT22;2216;53.806;11.598;2023-04-16T11:51:43;13.40;72.20
4406;DHT22;2216;53.806;11.598;2023-04-16T11:54:21;13.30;71.90
4406;DHT22;2216;53.806;11.598;2023-04-16T11:56:49;13.30;72.50
4406;DHT22;2216;53.806;11.598;2023-04-16T12:01:49;13.30;72.70
4406;DHT22;2216;53.806;11.598;2023-04-16T12:04:18;13.40;72.60
4406;DHT22;2216;53.806;11.598;2023-04-16T12:07:05;13.40;72.80
4406;DHT22;2216;53.806;11.598;2023-04-16T12:09:35;13.50;72.60
4406;DHT22;2216;53.806;11.598;2023-04-16T12:12:02;13.50;72.60
4406;DHT22;2216;53.806;11.598;2023-04-16T12:14:29;13.60;72.60
4406;DHT22;2216;53.806;11.598;2023-04-16T12:17:14;13.60;72.10
4406;DHT22;2216;53.806;11.598;2023-04-16T12:19:48;13.70;72.90
4406;DHT22;2216;53.806;11.598;2023-04-16T12:22:16;13.60;72.40
4406;DHT22;2216;53.806;11.598;2023-04-16T12:24:42;13.80;72.20
4406;DHT22;2216;53.806;11.598;2023-04-16T12:27:07;13.80;72.00
4406;DHT22;2216;53.806;11.598;2023-04-16T12:29:33;13.90;72.20
4406;DHT22;2216;53.806;11.598;2023-04-16T12:31:58;13.90;72.10
4406;DHT22;2216;53.806;11.598;2023-04-16T12:34:24;13.90;72.20
4406;DHT22;2216;53.806;11.598;2023-04-16T12:37:05;13.90;72.30
4406;DHT22;2216;53.806;11.598;2023-04-16T12:39:33;14.00;71.90
4406;DHT22;2216;53.806;11.598;2023-04-16T12:41:59;13.90;71.00
4406;DHT22;2216;53.806;11.598;2023-04-16T12:44:25;13.90;71.50
4406;DHT22;2216;53.806;11.598;2023-04-16T12:46:52;13.90;71.30
4406;DHT22;2216;53.806;11.598;2023-04-16T12:49:17;13.90;71.40
4406;DHT22;2216;53.806;11.598;2023-04-16T12:51:43;13.80;70.30
4406;DHT22;2216;53.806;11.598;2023-04-16T12:54:09;13.70;70.00
4406;DHT22;2216;53.806;11.598;2023-04-16T12:56:34;13.50;70.00
4406;DHT22;2216;53.806;11.598;2023-04-16T12:59:00;13.50;70.50
4406;DHT22;2216;53.806;11.598;2023-04-16T13:01:26;13.30;70.60
4406;DHT22;2216;53.806;11.598;2023-04-16T13:03:52;13.30;70.90
4406;DHT22;2216;53.806;11.598;2023-04-16T13:06:18;13.20;71.00
4406;DHT22;2216;53.806;11.598;2023-04-16T13:08:44;13.10;71.40
4406;DHT22;2216;53.806;11.598;2023-04-16T13:11:10;13.20;71.60
4406;DHT22;2216;53.806;11.598;2023-04-16T13:13:36;13.10;71.70
4406;DHT22;2216;53.806;11.598;2023-04-16T13:16:02;13.20;71.80
4406;DHT22;2216;53.806;11.598;2023-04-16T13:18:31;13.20;72.30
4406;DHT22;2216;53.806;11.598;2023-04-16T13:20:57;13.20;72.50
4406;DHT22;2216;53.806;11.598;2023-04-16T13:23:23;13.30;72.60
4406;DHT22;2216;53.806;11.598;2023-04-16T13:25:49;13.40;72.20
4406;DHT22;2216;53.806;11.598;2023-04-16T13:28:14;13.50;72.40
4406;DHT22;2216;53.806;11.598;2023-04-16T13:30:40;13.50;72.20
4406;DHT22;2216;53.806;11.598;2023-04-16T13:33:06;13.50;72.10
4406;DHT22;2216;53.806;11.598;2023-04-16T13:35:33;13.50;71.20
4406;DHT22;2216;53.806;11.598;2023-04-16T13:37:59;13.50;71.40
4406;DHT22;2216;53.806;11.598;2023-04-16T13:40:24;13.40;71.00
4406;DHT22;2216;53.806;11.598;2023-04-16T13:42:50;13.50;71.00
4406;DHT22;2216;53.806;11.598;2023-04-16T13:45:16;13.50;71.20
4406;DHT22;2216;53.806;11.598;2023-04-16T13:47:42;13.50;71.20
4406;DHT22;2216;53.806;11.598;2023-04-16T13:50:08;13.50;70.80
4406;DHT22;2216;53.806;11.598;2023-04-16T13:52:34;13.50;71.00
4406;DHT22;2216;53.806;11.598;2023-04-16T13:55:00;13.50;70.10
4406;DHT22;2216;53.806;11.598;2023-04-16T13:57:27;13.50;70.60
4406;DHT22;2216;53.806;11.598;2023-04-16T13:59:54;13.50;70.60
4406;DHT22;2216;53.806;11.598;2023-04-16T14:02:21;13.50;70.90
4406;DHT22;2216;53.806;11.598;2023-04-16T14:04:47;13.60;70.60
4406;DHT22;2216;53.806;11.598;2023-04-16T14:07:13;13.60;70.30
4406;DHT22;2216;53.806;11.598;2023-04-16T14:09:39;13.60;70.30
4406;DHT22;2216;53.806;11.598;2023-04-16T14:12:05;13.60;70.50
4406;DHT22;2216;53.806;11.598;2023-04-16T14:14:31;13.70;71.40
4406;DHT22;2216;53.806;11.598;2023-04-16T14:16:57;13.80;70.60
4406;DHT22;2216;53.806;11.598;2023-04-16T14:19:23;13.80;69.70
4406;DHT22;2216;53.806;11.598;2023-04-16T14:21:49;13.80;69.70
4406;DHT22;2216;53.806;11.598;2023-04-16T14:24:14;13.80;69.60
4406;DHT22;2216;53.806;11.598;2023-04-16T14:26:42;13.80;68.90
4406;DHT22;2216;53.806;11.598;2023-04-16T14:29:08;13.80;69.60
4406;DHT22;2216;53.806;11.598;2023-04-16T14:31:34;13.80;68.80
4406;DHT22;2216;53.806;11.598;2023-04-16T14:34:00;13.80;69.70
4406;DHT22;2216;53.806;11.598;2023-04-16T14:36:26;13.80;68.40
4406;DHT22;2216;53.806;11.598;2023-04-16T14:38:52;13.70;68.80
4406;DHT22;2216;53.806;11.598;2023-04-16T14:41:18;13.70;68.80
4406;DHT22;2216;53.806;11.598;2023-04-16T14:43:43;13.70;68.90
4406;DHT22;2216;53.806;11.598;2023-04-16T14:46:09;13.70;69.30
4406;DHT22;2216;53.806;11.598;2023-04-16T14:48:35;13.70;68.70
4406;DHT22;2216;53.806;11.598;2023-04-16T14:51:01;13.70;69.10
4406;DHT22;2216;53.806;11.598;2023-04-16T14:53:27;13.80;69.20
4406;DHT22;2216;53.806;11.598;2023-04-16T14:55:53;13.70;69.30
4406;DHT22;2216;53.806;11.598;2023-04-16T14:58:22;13.80;69.70
4406;DHT22;2216;53.806;11.598;2023-04-16T15:00:48;13.80;70.10
4406;DHT22;2216;53.806;11.598;2023-04-16T15:03:13;13.90;69.60
4406;DHT22;2216;53.806;11.598;2023-04-16T15:05:39;13.90;69.50
4406;DHT22;2216;53.806;11.598;2023-04-16T15:08:05;14.00;69.00
4406;DHT22;2216;53.806;11.598;2023-04-16T15:10:31;13.90;68.10
4406;DHT22;2216;53.806;11.598;2023-04-16T15:12:57;13.90;68.80
4406;DHT22;2216;53.806;11.598;2023-04-16T15:15:22;13.90;68.30
4406;DHT22;2216;53.806;11.598;2023-04-16T15:17:49;13.80;68.00
4406;DHT22;2216;53.806;11.598;2023-04-16T15:20:15;13.70;68.50
4406;DHT22;2216;53.806;11.598;2023-04-16T15:22:40;13.60;67.40
4406;DHT22;2216;53.806;11.598;2023-04-16T15:25:06;13.60;67.60
4406;DHT22;2216;53.806;11.598;2023-04-16T15:27:32;13.60;67.80
4406;DHT22;2216;53.806;11.598;2023-04-16T15:29:58;13.50;68.10
4406;DHT22;2216;53.806;11.598;2023-04-16T15:32:24;13.50;67.80
4406;DHT22;2216;53.806;11.598;2023-04-16T15:34:49;13.50;68.30
4406;DHT22;2216;53.806;11.598;2023-04-16T15:37:15;13.40;67.70
4406;DHT22;2216;53.806;11.598;2023-04-16T15:39:41;13.40;67.80
4406;DHT22;2216;53.806;11.598;2023-04-16T15:42:07;13.40;67.80
4406;DHT22;2216;53.806;11.598;2023-04-16T15:44:33;13.40;67.40
4406;DHT22;2216;53.806;11.598;2023-04-16T15:46:59;13.30;68.20
4406;DHT22;2216;53.806;11.598;2023-04-16T15:49:25;13.20;68.00
4406;DHT22;2216;53.806;11.598;2023-04-16T15:51:51;13.20;67.70
4406;DHT22;2216;53.806;11.598;2023-04-16T15:54:17;13.10;67.40
4406;DHT22;2216;53.806;11.598;2023-04-16T15:56:44;13.10;67.60
4406;DHT22;2216;53.806;11.598;2023-04-16T15:59:10;13.00;67.90
4406;DHT22;2216;53.806;11.598;2023-04-16T16:01:36;12.90;66.90